Time;durP1;ratioP1;P1;durP2;ratioP2;P2;SDS_P1;SDS_P2;PMS_P1;PMS_P2;Temp;Humidity;BMP_temperature;BMP_pressure;BME280_temperature;BME280_humidity;BME280_pressure;Samples;Min_cycle;Max_cycle;Signal;HPM_P1;HPM_P2
2021/12/23 00:02:05;;;;;;;21.38;10.55;;;;;;;2.08;100.00;100509.84;5081251;28;20032;-51
2021/12/23 00:04:30;;;;;;;20.48;9.55;;;;;;;2.08;100.00;100527.34;5083031;28;20020;-51
2021/12/23 00:06:56;;;;;;;20.08;11.73;;;;;;;2.11;100.00;100525.28;5078066;28;20389;-50
2021/12/23 00:09:25;;;;;;;22.33;10.10;;;;;;;2.10;100.00;100513.19;5079180;28;20039;-50
2021/12/23 00:11:50;;;;;;;26.20;11.10;;;;;;;2.13;100.00;100504.22;5081818;28;20507;-52
2021/12/23 00:14:16;;;;;;;24.27;13.40;;;;;;;2.11;100.00;100506.97;5079757;28;20028;-50
2021/12/23 00:16:44;;;;;;;19.50;9.35;;;;;;;2.13;100.00;100501.63;5080056;28;20150;-48
2021/12/23 00:24:39;;;;;;;22.88;10.88;;;;;;;2.23;100.00;100496.41;5074265;28;20393;-48
2021/12/23 00:27:05;;;;;;;29.23;11.75;;;;;;;2.25;100.00;100503.16;5080669;28;20028;-50
2021/12/23 00:29:31;;;;;;;20.80;10.15;;;;;;;2.27;100.00;100493.38;5081071;28;20033;-47
2021/12/23 00:31:56;;;;;;;24.20;11.93;;;;;;;2.28;100.00;100494.19;5075961;28;20147;-47
2021/12/23 00:34:22;;;;;;;23.27;10.05;;;;;;;2.28;100.00;100484.56;5079449;28;20028;-50
2021/12/23 00:36:48;;;;;;;26.25;12.20;;;;;;;2.30;100.00;100493.09;5065515;28;20028;-50
2021/12/23 00:39:15;;;;;;;22.70;9.88;;;;;;;2.29;100.00;100486.19;5079378;28;20119;-50
2021/12/23 00:41:43;;;;;;;23.48;12.27;;;;;;;2.29;100.00;100493.22;5075978;28;20502;-48
2021/12/23 00:44:08;;;;;;;23.83;10.70;;;;;;;2.31;100.00;100473.81;5076512;28;20487;-48
2021/12/23 00:46:33;;;;;;;21.52;10.80;;;;;;;2.32;100.00;100459.78;5075398;28;20035;-46
2021/12/23 00:48:59;;;;;;;25.15;12.25;;;;;;;2.35;100.00;100442.94;5078160;28;20453;-51
2021/12/23 00:51:24;;;;;;;21.95;9.80;;;;;;;2.36;100.00;100450.66;5100122;27;20378;-51
2021/12/23 00:53:52;;;;;;;31.02;12.70;;;;;;;2.39;100.00;100439.91;5078594;28;20028;-49
2021/12/23 00:56:20;;;;;;;24.70;10.57;;;;;;;2.36;100.00;100429.75;5072683;28;20039;-47
2021/12/23 00:58:46;;;;;;;24.05;10.70;;;;;;;2.37;100.00;100427.94;5080377;28;20032;-49
2021/12/23 01:01:11;;;;;;;19.95;10.40;;;;;;;2.36;100.00;100434.97;5075805;28;20024;-46
2021/12/23 01:03:37;;;;;;;25.98;11.48;;;;;;;2.36;100.00;100423.69;5070961;28;20020;-53
2021/12/23 01:06:03;;;;;;;19.58;11.15;;;;;;;2.38;100.00;100419.16;5077263;28;20040;-50
2021/12/23 01:08:28;;;;;;;20.58;10.52;;;;;;;2.38;100.00;100417.34;5084864;28;20075;-48
2021/12/23 01:10:57;;;;;;;27.23;11.65;;;;;;;2.39;100.00;100416.38;5078715;28;20475;-48
2021/12/23 01:13:27;;;;;;;22.08;11.18;;;;;;;2.42;100.00;100410.03;5076512;28;20055;-46
2021/12/23 01:16:05;;;;;;;23.65;10.45;;;;;;;2.45;100.00;100414.16;5067863;28;20033;-51
2021/12/23 01:18:42;;;;;;;19.90;9.57;;;;;;;2.45;100.00;100414.97;5085426;28;20024;-49
2021/12/23 01:21:16;;;;;;;21.55;9.43;;;;;;;2.44;100.00;100413.34;5075764;28;20044;-47
2021/12/23 01:23:46;;;;;;;16.55;9.20;;;;;;;2.46;100.00;100415.81;5068476;28;20036;-48
2021/12/23 01:26:17;;;;;;;22.20;10.57;;;;;;;2.49;100.00;100418.97;5069929;28;20028;-48
2021/12/23 01:28:43;;;;;;;23.38;10.13;;;;;;;2.50;100.00;100409.34;5077512;28;22125;-48
2021/12/23 01:31:08;;;;;;;27.15;11.65;;;;;;;2.50;100.00;100407.53;5068017;28;20605;-49
2021/12/23 01:33:33;;;;;;;17.92;9.02;;;;;;;2.50;100.00;100406.72;5085521;28;20639;-54
2021/12/23 01:35:59;;;;;;;22.00;10.23;;;;;;;2.49;100.00;100412.94;5085304;28;20392;-51
2021/12/23 01:38:24;;;;;;;23.02;10.27;;;;;;;2.47;100.00;100393.91;5092114;28;20494;-51
2021/12/23 01:40:50;;;;;;;24.95;11.23;;;;;;;2.49;100.00;100377.09;5080397;28;20059;-50
2021/12/23 01:43:17;;;;;;;20.33;10.60;;;;;;;2.51;100.00;100383.03;5080659;28;20029;-52
2021/12/23 01:45:47;;;;;;;23.80;12.88;;;;;;;2.51;100.00;100383.03;5076927;28;20064;-48
2021/12/23 01:48:14;;;;;;;30.90;13.18;;;;;;;2.53;100.00;100370.63;5078674;28;20035;-52
2021/12/23 01:50:40;;;;;;;23.10;12.48;;;;;;;2.52;100.00;100365.53;5079869;28;20093;-51
2021/12/23 01:53:07;;;;;;;23.85;10.23;;;;;;;2.51;100.00;100364.72;5093165;28;20465;-49
2021/12/23 01:55:35;;;;;;;26.17;12.07;;;;;;;2.49;100.00;100373.66;5091017;28;20028;-49
2021/12/23 01:58:01;;;;;;;31.75;13.25;;;;;;;2.49;100.00;100384.13;5081555;28;20044;-49
2021/12/23 02:00:28;;;;;;;22.98;11.68;;;;;;;2.48;100.00;100382.47;5087363;28;20032;-48
2021/12/23 02:02:55;;;;;;;25.50;11.52;;;;;;;2.48;100.00;100390.31;5082415;28;20085;-51
2021/12/23 02:05:21;;;;;;;19.73;9.15;;;;;;;2.48;100.00;100391.16;5083567;28;20035;-50
2021/12/23 02:07:47;;;;;;;23.30;11.10;;;;;;;2.49;100.00;100397.22;5080817;28;20462;-50
2021/12/23 02:10:12;;;;;;;22.90;10.25;;;;;;;2.47;100.00;100396.53;5078495;28;20050;-48
2021/12/23 02:12:42;;;;;;;23.25;11.82;;;;;;;2.47;100.00;100401.75;5081066;28;20028;-48
2021/12/23 02:15:08;;;;;;;23.15;12.25;;;;;;;2.46;100.00;100393.09;5089828;28;20032;-49
2021/12/23 02:17:37;;;;;;;23.88;9.95;;;;;;;2.46;100.00;100397.50;5072907;28;20033;-50
2021/12/23 02:20:05;;;;;;;21.65;9.88;;;;;;;2.47;100.00;100392.13;5076302;28;20044;-46
2021/12/23 02:22:31;;;;;;;28.17;12.80;;;;;;;2.49;100.00;100379.72;5080595;28;20385;-50
2021/12/23 02:24:56;;;;;;;23.15;11.35;;;;;;;2.51;100.00;100384.81;5088447;28;20036;-47
2021/12/23 02:27:21;;;;;;;22.50;11.00;;;;;;;2.51;100.00;100384.81;5083817;28;20028;-50
2021/12/23 02:29:47;;;;;;;18.75;10.15;;;;;;;2.52;100.00;100381.22;5076918;28;20119;-50
2021/12/23 02:32:12;;;;;;;19.00;8.90;;;;;;;2.51;100.00;100380.41;5084936;28;20034;-49
2021/12/23 02:34:38;;;;;;;20.45;10.05;;;;;;;2.52;100.00;100381.22;5088835;28;20491;-48
2021/12/23 02:37:03;;;;;;;17.70;9.70;;;;;;;2.53;100.00;100381.09;5082882;28;20032;-52
2021/12/23 02:39:29;;;;;;;20.35;9.82;;;;;;;2.54;100.00;100374.88;5082883;28;20036;-51
2021/12/23 02:41:55;;;;;;;17.08;9.57;;;;;;;2.54;100.00;100366.22;5077826;28;20059;-52
2021/12/23 02:44:21;;;;;;;16.40;9.50;;;;;;;2.53;100.00;100357.53;5082594;28;20485;-49
2021/12/23 02:46:47;;;;;;;22.55;10.73;;;;;;;2.55;100.00;100354.78;5071313;28;20064;-48
2021/12/23 02:49:14;;;;;;;16.40;9.40;;;;;;;2.58;100.00;100360.56;5070312;28;20032;-49
2021/12/23 02:51:40;;;;;;;23.10;12.60;;;;;;;2.58;100.00;100357.94;5103561;27;20078;-48
2021/12/23 02:54:06;;;;;;;18.92;10.90;;;;;;;2.60;100.00;100371.69;5083113;28;20024;-49
2021/12/23 02:56:32;;;;;;;21.85;10.57;;;;;;;2.62;100.00;100364.53;5085088;28;20046;-46
2021/12/23 02:58:57;;;;;;;24.75;11.30;;;;;;;2.64;100.00;100363.59;5084676;28;20039;-49
2021/12/23 03:01:23;;;;;;;21.08;9.50;;;;;;;2.63;100.00;100357.50;5068667;28;20056;-51
2021/12/23 03:03:49;;;;;;;18.27;9.52;;;;;;;2.64;100.00;100355.72;5078584;28;20039;-48
2021/12/23 03:06:18;;;;;;;16.65;9.23;;;;;;;2.64;100.00;100335.59;5085447;28;20036;-49
2021/12/23 03:09:02;;;;;;;24.23;9.65;;;;;;;2.64;100.00;100330.38;5073502;28;20032;-52
2021/12/23 03:11:29;;;;;;;19.10;10.38;;;;;;;2.66;100.00;100331.06;5108787;27;20043;-49
2021/12/23 03:13:56;;;;;;;21.63;10.32;;;;;;;2.69;100.00;100320.28;5077804;28;20036;-48
2021/12/23 03:16:28;;;;;;;19.35;10.95;;;;;;;2.72;100.00;100311.31;5080713;28;20098;-49
2021/12/23 03:18:54;;;;;;;22.48;10.02;;;;;;;2.72;100.00;100314.75;5077129;28;20030;-46
2021/12/23 03:21:19;;;;;;;22.58;10.48;;;;;;;2.71;100.00;100320.13;5076369;28;20036;-50
2021/12/23 03:23:45;;;;;;;19.00;10.35;;;;;;;2.74;100.00;100323.31;5081938;28;20028;-48
2021/12/23 03:26:11;;;;;;;20.17;10.55;;;;;;;2.76;100.00;100305.66;5082938;28;20032;-49
2021/12/23 03:28:37;;;;;;;23.58;12.35;;;;;;;2.76;100.00;100289.09;5073352;28;20069;-48
2021/12/23 03:31:04;;;;;;;22.02;9.40;;;;;;;2.78;100.00;100277.50;5077461;28;20043;-49
2021/12/23 03:33:29;;;;;;;19.35;9.40;;;;;;;2.82;100.00;100299.84;5082525;28;20436;-49
2021/12/23 03:35:55;;;;;;;21.88;10.82;;;;;;;2.84;100.00;100302.31;5073993;28;20029;-52
2021/12/23 03:38:20;;;;;;;20.60;9.88;;;;;;;2.88;100.00;100302.84;5079026;28;20040;-49
2021/12/23 03:40:46;;;;;;;24.65;10.68;;;;;;;2.89;100.00;100299.25;5076365;28;20050;-48
2021/12/23 03:43:14;;;;;;;18.63;10.07;;;;;;;2.90;100.00;100300.91;5080240;28;20035;-48
2021/12/23 03:45:39;;;;;;;19.67;8.88;;;;;;;2.93;100.00;100295.38;5084967;28;20072;-46
2021/12/23 03:48:05;;;;;;;21.13;9.95;;;;;;;2.92;100.00;100293.72;5070668;28;20059;-51
2021/12/23 03:50:31;;;;;;;24.55;10.25;;;;;;;2.92;100.00;100293.72;5082840;28;20123;-46
2021/12/23 03:52:56;;;;;;;20.30;9.60;;;;;;;2.94;100.00;100279.50;5078495;28;20452;-50
2021/12/23 03:55:22;;;;;;;28.58;11.55;;;;;;;2.93;100.00;100277.03;5071816;28;20025;-49
2021/12/23 03:57:48;;;;;;;19.88;9.65;;;;;;;2.97;100.00;100276.59;5069606;28;20040;-50
2021/12/23 04:00:17;;;;;;;18.67;10.68;;;;;;;2.98;100.00;100272.19;5076512;28;20032;-49
2021/12/23 04:02:42;;;;;;;20.95;10.70;;;;;;;2.98;100.00;100283.47;5078910;28;20020;-48
2021/12/23 04:05:09;;;;;;;18.13;8.93;;;;;;;3.00;100.00;100268.44;5075820;28;20035;-51
2021/12/23 04:07:35;;;;;;;20.90;9.52;;;;;;;3.00;100.00;100262.41;5074059;28;20124;-48
2021/12/23 04:10:00;;;;;;;20.23;10.68;;;;;;;3.03;100.00;100256.84;5079325;28;20123;-47
2021/12/23 04:12:25;;;;;;;26.55;11.07;;;;;;;3.08;100.00;100246.75;5086072;28;20073;-52
2021/12/23 04:14:51;;;;;;;20.45;9.43;;;;;;;3.10;100.00;100244.81;5074125;28;20512;-52
2021/12/23 04:17:16;;;;;;;15.90;9.15;;;;;;;3.11;100.00;100235.16;5068496;28;20064;-47
2021/12/23 04:19:45;;;;;;;22.98;10.63;;;;;;;3.14;100.00;100229.63;5072438;28;20036;-47
2021/12/23 04:22:11;;;;;;;27.00;10.38;;;;;;;3.14;100.00;100232.25;5078932;28;20031;-48
2021/12/23 04:24:36;;;;;;;20.80;10.88;;;;;;;3.16;100.00;100230.28;5081383;28;20355;-46
2021/12/23 04:27:02;;;;;;;17.77;9.85;;;;;;;3.19;100.00;100224.75;5067952;28;20394;-49
2021/12/23 04:29:27;;;;;;;20.40;11.05;;;;;;;3.20;100.00;100221.16;5075226;28;20029;-49
2021/12/23 04:31:52;;;;;;;15.85;9.27;;;;;;;3.20;100.00;100222.00;5080226;28;20494;-52
2021/12/23 04:34:18;;;;;;;26.15;11.75;;;;;;;3.21;100.00;100214.94;5083782;28;20442;-51
2021/12/23 04:36:43;;;;;;;23.50;11.43;;;;;;;3.24;100.00;100212.84;5080006;28;20029;-49
2021/12/23 04:39:09;;;;;;;17.52;7.05;;;;;;;3.25;100.00;100216.28;5072331;28;20028;-53
2021/12/23 04:41:34;;;;;;;19.88;9.75;;;;;;;3.26;100.00;100218.75;5075735;28;20070;-48
2021/12/23 04:44:00;;;;;;;20.75;11.13;;;;;;;3.27;100.00;100223.03;5082983;28;20064;-49
2021/12/23 04:46:26;;;;;;;21.13;9.48;;;;;;;3.28;100.00;100222.06;5077749;28;20028;-49
2021/12/23 04:48:52;;;;;;;20.50;8.95;;;;;;;3.30;100.00;100218.47;5075757;28;20044;-48
2021/12/23 04:51:19;;;;;;;27.38;10.23;;;;;;;3.30;100.00;100213.22;5072612;28;20034;-49
2021/12/23 04:53:45;;;;;;;21.17;9.23;;;;;;;3.32;100.00;100217.34;5084546;28;20039;-49
2021/12/23 04:56:12;;;;;;;25.95;9.65;;;;;;;3.33;100.00;100203.28;5079104;28;20028;-49
2021/12/23 04:58:38;;;;;;;24.65;10.05;;;;;;;3.33;100.00;100200.66;5085925;28;20020;-51
2021/12/23 05:01:06;;;;;;;20.60;10.20;;;;;;;3.34;100.00;100196.22;5085320;28;20031;-52
2021/12/23 05:03:32;;;;;;;17.92;10.10;;;;;;;3.35;100.00;100187.38;5070047;28;20047;-47
2021/12/23 05:05:57;;;;;;;20.60;8.95;;;;;;;3.38;100.00;100190.53;5085828;28;20550;-46
2021/12/23 05:08:22;;;;;;;28.40;11.25;;;;;;;3.42;100.00;100177.94;5071492;28;20032;-47
2021/12/23 05:10:48;;;;;;;20.02;8.85;;;;;;;3.44;100.00;100170.75;5081350;28;20048;-46
2021/12/23 05:13:13;;;;;;;20.95;10.38;;;;;;;3.45;100.00;100169.78;5072729;28;20028;-51
2021/12/23 05:15:39;;;;;;;21.67;10.45;;;;;;;3.48;100.00;100165.06;5084090;28;20073;-53
2021/12/23 05:18:06;;;;;;;35.50;13.77;;;;;;;3.49;100.00;100164.09;5069630;28;20036;-47
2021/12/23 05:20:31;;;;;;;19.42;10.07;;;;;;;3.53;100.00;100155.91;5067339;28;20024;-50
2021/12/23 05:22:57;;;;;;;22.73;10.23;;;;;;;3.52;100.00;100155.09;5075243;28;20036;-51
2021/12/23 05:25:23;;;;;;;20.00;9.40;;;;;;;3.53;100.00;100151.47;5079238;28;20039;-48
2021/12/23 05:27:52;;;;;;;20.23;10.13;;;;;;;3.57;100.00;100158.06;5080414;28;20399;-49
2021/12/23 05:30:18;;;;;;;18.63;9.93;;;;;;;3.60;100.00;100165.63;5078437;28;20032;-52
2021/12/23 05:32:45;;;;;;;19.45;9.90;;;;;;;3.65;100.00;100170.41;5080985;28;20040;-48
2021/12/23 05:35:13;;;;;;;25.70;11.10;;;;;;;3.67;100.00;100156.19;5076298;28;20036;-48
2021/12/23 05:37:39;;;;;;;15.68;9.05;;;;;;;3.68;100.00;100143.88;5080675;28;20098;-47
2021/12/23 05:40:06;;;;;;;29.33;9.40;;;;;;;3.66;100.00;100145.84;5082600;28;20105;-49
2021/12/23 05:42:32;;;;;;;19.42;9.32;;;;;;;3.66;100.00;100151.06;5081753;28;20036;-48
2021/12/23 05:44:57;;;;;;;26.60;12.32;;;;;;;3.66;100.00;100154.50;5076205;28;20097;-48
2021/12/23 05:47:23;;;;;;;20.50;10.40;;;;;;;3.69;100.00;100154.22;5080507;28;20556;-51
2021/12/23 05:49:48;;;;;;;21.77;10.70;;;;;;;3.72;100.00;100146.06;5080229;28;21155;-49
2021/12/23 05:52:14;;;;;;;17.10;9.25;;;;;;;3.72;100.00;100147.84;5070364;28;20042;-49
2021/12/23 05:54:39;;;;;;;19.20;9.48;;;;;;;3.74;100.00;100158.16;5074013;28;20024;-47
2021/12/23 05:57:05;;;;;;;16.45;9.00;;;;;;;3.73;100.00;100146.88;5074593;28;20039;-50
2021/12/23 05:59:35;;;;;;;17.88;9.55;;;;;;;3.78;100.00;100154.28;5079794;28;20060;-50
2021/12/23 06:02:01;;;;;;;15.88;8.13;;;;;;;3.76;100.00;100141.31;5078226;28;20035;-49
2021/12/23 06:04:27;;;;;;;17.13;8.48;;;;;;;3.79;100.00;100155.91;5084395;28;20028;-50
2021/12/23 06:06:53;;;;;;;30.45;11.40;;;;;;;3.79;100.00;100155.91;5075747;28;20040;-48
2021/12/23 06:09:18;;;;;;;21.48;10.43;;;;;;;3.81;100.00;100148.72;5085156;28;20450;-52
2021/12/23 06:11:44;;;;;;;19.88;9.27;;;;;;;3.81;100.00;100144.28;5070521;28;20031;-49
2021/12/23 06:14:09;;;;;;;20.95;10.77;;;;;;;3.83;100.00;100152.00;5071473;28;20538;-50
2021/12/23 06:16:35;;;;;;;24.23;9.30;;;;;;;3.88;100.00;100141.88;5073255;28;20111;-52
2021/12/23 06:19:00;;;;;;;17.38;9.60;;;;;;;3.90;100.00;100142.56;5078507;28;20107;-49
2021/12/23 06:21:30;;;;;;;21.75;9.90;;;;;;;3.90;100.00;100132.06;5072421;28;20070;-53
2021/12/23 06:23:57;;;;;;;17.98;10.50;;;;;;;3.92;100.00;100141.41;5077978;28;20520;-52
2021/12/23 06:26:22;;;;;;;28.35;11.43;;;;;;;3.94;100.00;100120.25;5078027;28;20028;-51
2021/12/23 06:28:48;;;;;;;23.48;12.23;;;;;;;3.95;100.00;100124.53;5078324;28;20038;-49
2021/12/23 06:31:14;;;;;;;20.50;8.40;;;;;;;3.98;100.00;100118.16;5072628;28;20048;-49
2021/12/23 06:33:39;;;;;;;27.65;11.80;;;;;;;4.01;100.00;100117.84;5074548;28;20414;-51
2021/12/23 06:36:05;;;;;;;17.20;9.73;;;;;;;4.03;100.00;100118.50;5081165;28;20393;-50
2021/12/23 06:38:31;;;;;;;20.13;11.45;;;;;;;4.06;100.00;100124.25;5087295;28;20036;-50
2021/12/23 06:40:56;;;;;;;18.08;9.18;;;;;;;4.10;100.00;100143.94;5082185;28;20118;-51
2021/12/23 06:43:22;;;;;;;27.85;10.98;;;;;;;4.12;100.00;100141.97;5083690;28;20040;-48
2021/12/23 06:45:47;;;;;;;21.25;9.80;;;;;;;4.12;100.00;100146.41;5081792;28;20474;-48
2021/12/23 06:48:13;;;;;;;23.13;10.77;;;;;;;4.14;100.00;100136.59;5086158;28;20039;-49
2021/12/23 06:50:38;;;;;;;22.10;9.93;;;;;;;4.14;100.00;100129.53;5076877;28;20032;-48
2021/12/23 06:53:04;;;;;;;22.20;10.45;;;;;;;4.15;100.00;100130.34;5083472;28;20073;-46
2021/12/23 06:55:30;;;;;;;18.70;11.15;;;;;;;4.12;100.00;100128.06;5077964;28;20111;-49
2021/12/23 06:57:57;;;;;;;28.15;11.35;;;;;;;4.12;100.00;100125.44;5086518;28;20024;-50
2021/12/23 07:00:25;;;;;;;27.67;12.05;;;;;;;4.14;100.00;100128.72;5084681;28;20025;-52
2021/12/23 07:02:51;;;;;;;23.15;11.07;;;;;;;4.15;100.00;100115.41;5078754;28;20036;-47
2021/12/23 07:05:17;;;;;;;20.73;9.43;;;;;;;4.17;100.00;100111.84;5076546;28;20103;-47
2021/12/23 07:08:28;;;;;;;20.83;12.32;;;;;;;4.21;100.00;100102.66;5081625;28;20111;-49
2021/12/23 07:10:33;;;;;;;28.90;11.23;;;;;;;4.18;100.00;100087.22;5069994;28;20075;-46
2021/12/23 07:12:59;;;;;;;20.13;11.13;;;;;;;4.18;100.00;100089.84;5071056;28;20038;-50
2021/12/23 07:15:26;;;;;;;26.88;12.10;;;;;;;4.20;100.00;100090.53;5079649;28;20036;-49
2021/12/23 07:17:53;;;;;;;24.65;10.48;;;;;;;4.22;100.00;100099.06;5082324;28;20127;-52
2021/12/23 07:20:18;;;;;;;26.20;11.80;;;;;;;4.23;100.00;100087.56;5082034;28;20900;-47
2021/12/23 07:22:44;;;;;;;22.15;10.18;;;;;;;4.26;100.00;100090.72;5083969;28;20095;-50
2021/12/23 07:25:09;;;;;;;23.40;10.98;;;;;;;4.26;100.00;100084.63;5080381;28;20054;-49
2021/12/23 07:27:35;;;;;;;25.98;11.68;;;;;;;4.27;100.00;100096.78;5083540;28;20020;-48
2021/12/23 07:30:03;;;;;;;30.00;12.55;;;;;;;4.30;100.00;100085.97;5082724;28;20055;-53
2021/12/23 07:32:28;;;;;;;28.77;11.73;;;;;;;4.29;100.00;100069.41;5078731;28;20540;-50
2021/12/23 07:34:53;;;;;;;36.30;13.05;;;;;;;4.30;100.00;100070.22;5080656;28;20123;-49
2021/12/23 07:37:20;;;;;;;27.73;12.93;;;;;;;4.29;100.00;100076.44;5080219;28;20488;-48
2021/12/23 07:39:47;;;;;;;34.00;14.38;;;;;;;4.29;100.00;100079.06;5083513;28;20071;-51
2021/12/23 07:42:15;;;;;;;24.95;12.52;;;;;;;4.31;100.00;100083.19;5081185;28;20027;-52
2021/12/23 07:44:41;;;;;;;20.88;10.55;;;;;;;4.32;100.00;100090.06;5081832;28;20115;-49
2021/12/23 07:47:06;;;;;;;30.67;13.23;;;;;;;4.36;100.00;100094.03;5081497;28;20036;-46
2021/12/23 07:49:32;;;;;;;21.15;10.30;;;;;;;4.41;100.00;100090.91;5084723;28;20042;-49
2021/12/23 07:51:57;;;;;;;25.30;11.13;;;;;;;4.38;100.00;100088.59;5082179;28;20032;-50
2021/12/23 07:54:23;;;;;;;19.20;10.27;;;;;;;4.37;100.00;100094.84;5081632;28;20066;-50
2021/12/23 07:56:48;;;;;;;37.83;11.13;;;;;;;4.41;100.00;100100.59;5080598;28;20117;-48
2021/12/23 07:59:14;;;;;;;23.45;11.80;;;;;;;4.40;100.00;100097.16;5077574;28;20115;-52
2021/12/23 08:01:40;;;;;;;27.45;12.85;;;;;;;4.44;100.00;100097.63;5080089;28;20031;-50
2021/12/23 08:04:05;;;;;;;28.92;13.52;;;;;;;4.47;100.00;100103.41;5077366;28;20051;-51
2021/12/23 08:06:31;;;;;;;19.33;10.27;;;;;;;4.49;100.00;100100.59;5074395;28;20124;-50
2021/12/23 08:08:56;;;;;;;20.48;10.00;;;;;;;4.45;100.00;100096.66;5077929;28;20509;-50
2021/12/23 08:11:22;;;;;;;25.33;14.05;;;;;;;4.48;100.00;100101.59;5070474;28;20451;-48
2021/12/23 08:13:48;;;;;;;34.00;14.77;;;;;;;4.50;100.00;100092.56;5078325;28;20299;-50
2021/12/23 08:16:13;;;;;;;26.52;12.00;;;;;;;4.50;100.00;100087.31;5081049;28;20065;-48
2021/12/23 08:18:39;;;;;;;37.70;12.80;;;;;;;4.52;100.00;100095.06;5083386;28;20020;-52
2021/12/23 08:21:04;;;;;;;28.45;13.65;;;;;;;4.56;100.00;100099.78;5086677;28;20036;-49
2021/12/23 08:23:30;;;;;;;27.35;14.23;;;;;;;4.57;100.00;100092.75;5083125;28;20071;-47
2021/12/23 08:25:59;;;;;;;35.33;14.23;;;;;;;4.60;100.00;100095.06;5085924;28;20081;-48
2021/12/23 08:28:24;;;;;;;32.90;13.68;;;;;;;4.60;100.00;100087.19;5076418;28;20024;-48
2021/12/23 08:30:49;;;;;;;25.05;10.27;;;;;;;4.63;100.00;100092.09;5085769;28;20044;-48
2021/12/23 08:33:15;;;;;;;29.88;13.15;;;;;;;4.67;100.00;100089.97;5084065;28;20035;-51
2021/12/23 08:35:40;;;;;;;32.53;14.18;;;;;;;4.71;100.00;100091.28;5080615;28;20039;-53
2021/12/23 08:38:06;;;;;;;34.00;14.15;;;;;;;4.72;100.00;100098.19;5075653;28;20020;-50
2021/12/23 08:40:32;;;;;;;27.75;12.27;;;;;;;4.75;100.00;100101.31;5078924;28;20020;-48
2021/12/23 08:42:58;;;;;;;33.63;13.82;;;;;;;4.75;100.00;100101.31;5076221;28;20050;-49
2021/12/23 08:45:26;;;;;;;33.55;13.48;;;;;;;4.74;100.00;100094.41;5081115;28;20086;-51
2021/12/23 08:47:54;;;;;;;32.63;14.48;;;;;;;4.76;100.00;100100.31;5080802;28;20123;-48
2021/12/23 08:50:21;;;;;;;37.33;14.07;;;;;;;4.79;100.00;100107.88;5081288;28;20040;-52
2021/12/23 08:52:47;;;;;;;29.77;14.23;;;;;;;4.85;100.00;100102.97;5074032;28;20032;-48
2021/12/23 08:55:13;;;;;;;28.25;12.88;;;;;;;4.89;100.00;100122.69;5073303;28;20478;-50
2021/12/23 08:57:40;;;;;;;25.15;13.57;;;;;;;4.88;100.00;100111.34;5077716;28;20024;-49
2021/12/23 09:00:09;;;;;;;26.25;11.75;;;;;;;4.92;100.00;100096.88;5078236;28;20028;-50
2021/12/23 09:02:35;;;;;;;37.25;14.65;;;;;;;4.94;100.00;100108.06;5086398;28;20030;-50
2021/12/23 09:05:01;;;;;;;37.60;15.98;;;;;;;4.97;100.00;100105.09;5076687;28;20023;-49
2021/12/23 09:07:26;;;;;;;34.42;14.93;;;;;;;5.01;100.00;100105.63;5080737;28;20107;-50
2021/12/23 09:09:51;;;;;;;35.00;15.15;;;;;;;5.05;100.00;100095.59;5073558;28;20548;-51
2021/12/23 09:12:19;;;;;;;27.65;14.05;;;;;;;5.10;100.00;100090.66;5070656;28;20032;-51
2021/12/23 09:14:44;;;;;;;50.83;19.67;;;;;;;5.14;100.00;100084.91;5077261;28;20121;-52
2021/12/23 09:17:10;;;;;;;32.92;14.25;;;;;;;5.13;100.00;100075.38;5078123;28;20878;-51
2021/12/23 09:19:35;;;;;;;34.33;13.45;;;;;;;5.17;100.00;100083.75;5073138;28;20040;-48
2021/12/23 09:22:02;;;;;;;32.15;13.50;;;;;;;5.23;100.00;100073.38;5070991;28;20027;-48
2021/12/23 09:24:27;;;;;;;42.28;15.15;;;;;;;5.25;100.00;100075.88;5082515;28;20032;-53
2021/12/23 09:27:00;;;;;;;32.15;13.68;;;;;;;5.27;100.00;100076.53;5079225;28;20519;-50
2021/12/23 09:34:56;;;;;;;31.10;13.23;;;;;;;5.40;100.00;100081.28;5077098;28;20112;-50
2021/12/23 09:37:24;;;;;;;31.60;13.23;;;;;;;5.43;100.00;100073.03;5080567;28;20216;-47
2021/12/23 09:39:54;;;;;;;37.03;15.10;;;;;;;5.47;100.00;100080.44;5078009;28;20043;-49
2021/12/23 09:42:24;;;;;;;34.47;13.93;;;;;;;5.48;100.00;100081.25;5070148;28;20024;-50
2021/12/23 09:44:50;;;;;;;32.28;14.35;;;;;;;5.51;100.00;100085.34;5082596;28;20528;-48
2021/12/23 09:47:18;;;;;;;33.10;15.57;;;;;;;5.53;100.00;100086.84;5078866;28;20024;-50
2021/12/23 09:49:45;;;;;;;30.80;15.10;;;;;;;5.55;100.00;100084.00;5077828;28;20063;-51
2021/12/23 09:52:10;;;;;;;31.40;15.50;;;;;;;5.53;100.00;100089.47;5078140;28;20103;-47
2021/12/23 09:54:41;;;;;;;38.72;17.00;;;;;;;5.54;100.00;100085.00;5086048;28;20437;-49
2021/12/23 09:57:07;;;;;;;30.25;15.13;;;;;;;5.57;100.00;100093.38;5083835;28;20420;-50
2021/12/23 09:59:34;;;;;;;27.98;12.82;;;;;;;5.61;100.00;100091.25;5083671;28;20074;-50
2021/12/23 10:01:59;;;;;;;37.17;15.65;;;;;;;5.66;100.00;100089.75;5076193;28;20114;-49
2021/12/23 10:04:24;;;;;;;25.80;13.07;;;;;;;5.66;100.00;100088.94;5085122;28;20032;-53
2021/12/23 10:06:51;;;;;;;35.90;16.38;;;;;;;5.69;100.00;100091.22;5072991;28;20032;-51
2021/12/23 10:09:36;;;;;;;35.10;16.85;;;;;;;5.71;100.00;100096.34;5076276;28;20050;-48
2021/12/23 10:31:45;;;;;;;31.40;11.98;;;;;;;5.84;100.00;100096.63;5076731;28;20063;-48
2021/12/23 10:37:17;;;;;;;38.10;16.80;;;;;;;5.91;100.00;100087.03;5075657;28;20993;-48
2021/12/23 10:40:08;;;;;;;32.78;15.35;;;;;;;5.96;100.00;100089.19;5081222;28;20039;-48
2021/12/23 10:42:33;;;;;;;33.10;14.70;;;;;;;5.99;100.00;100073.91;5082326;28;20028;-46
2021/12/23 10:45:04;;;;;;;32.08;14.43;;;;;;;6.04;100.00;100076.00;5078710;28;20035;-51
2021/12/23 10:47:53;;;;;;;34.83;15.27;;;;;;;6.09;100.00;100073.66;5083150;28;20035;-48
2021/12/23 10:50:29;;;;;;;35.85;14.70;;;;;;;6.14;100.00;100073.97;5078006;28;20088;-49
2021/12/23 10:57:58;;;;;;;33.80;14.35;;;;;;;6.16;100.00;100068.53;5084598;28;20585;-55
2021/12/23 10:59:22;;;;;;;29.88;15.35;;;;;;;6.27;100.00;100055.84;5073206;28;20048;-50
2021/12/23 11:02:18;;;;;;;34.80;15.45;;;;;;;6.32;100.00;100050.88;5075547;28;20535;-50
2021/12/23 11:05:19;;;;;;;33.40;14.43;;;;;;;6.35;100.00;100049.69;5073608;28;20043;-49
2021/12/23 11:11:02;;;;;;;28.58;14.75;;;;;;;6.39;100.00;100032.53;5072455;28;20127;-49
2021/12/23 11:41:02;;;;;;;34.05;13.52;;;;;;;6.55;100.00;99994.72;5075661;28;20035;-48
2021/12/23 11:45:53;;;;;;;30.58;14.18;;;;;;;6.64;100.00;99983.13;5075498;28;20048;-49
2021/12/23 11:48:19;;;;;;;27.13;13.25;;;;;;;6.68;100.00;99978.31;5076926;28;20070;-49
2021/12/23 11:51:01;;;;;;;27.80;13.63;;;;;;;6.71;100.00;99970.91;5075928;28;20045;-50
2021/12/23 11:53:27;;;;;;;28.33;13.48;;;;;;;6.71;100.00;99967.44;5075212;28;20036;-50
2021/12/23 11:55:53;;;;;;;26.35;12.85;;;;;;;6.73;100.00;99962.81;5070493;28;20495;-48
2021/12/23 11:58:25;;;;;;;30.85;14.35;;;;;;;6.75;100.00;99952.91;5072466;28;20024;-49
2021/12/23 12:01:09;;;;;;;27.63;14.77;;;;;;;6.80;100.00;99944.47;5071950;28;20859;-49
2021/12/23 12:03:52;;;;;;;28.20;13.40;;;;;;;6.84;100.00;99936.03;5080802;28;20086;-50
2021/12/23 12:06:21;;;;;;;26.88;14.70;;;;;;;6.88;100.00;99942.56;5077653;28;20489;-49
2021/12/23 12:08:47;;;;;;;26.83;13.25;;;;;;;6.93;100.00;99940.22;5074122;28;20402;-46
2021/12/23 12:11:15;;;;;;;25.45;12.88;;;;;;;6.96;100.00;99937.22;5077486;28;20028;-51
2021/12/23 12:13:40;;;;;;;25.83;13.02;;;;;;;6.99;100.00;99938.66;5080848;28;20115;-49
2021/12/23 12:16:35;;;;;;;27.13;11.77;;;;;;;7.04;100.00;99944.22;5078208;28;20032;-49
2021/12/23 12:19:03;;;;;;;20.30;11.05;;;;;;;7.08;100.00;99937.59;5077908;28;20039;-50
2021/12/23 12:21:34;;;;;;;19.67;10.82;;;;;;;7.15;100.00;99930.59;5077327;28;20058;-48
2021/12/23 12:24:07;;;;;;;19.92;11.45;;;;;;;7.25;100.00;99925.03;5079767;28;20047;-50